Maulden, Kentucky
Current Conditions -  °F | °C
As of 2:53 AM on Sunday 23 Nov 2014 (Local Time) from KLOZ Reporting Station
Broken Clouds Broken Clouds  
Wind Chill:   Ceiling: 5000
Heat Index:   Visibility: 10mi
Dew Point:   Wind: 5mph
Humidity: 63%   Direction: 130°SE
Pressure: 30.1"   Gusts: NA
Location:  37.346°N, 83.8503°W
Report Text: KLOZ 230753Z AUTO 13004KT 10SM BKN050 07/01 A3010 RMK AO2 SLP190 T00720006
Loading
Personal Weather Stations






























Interactive Weather Map New forecast layout! Learn more

10-Day Weather Forecast

Advertisements
Track Severe Weather on mobile